Time;durP1;ratioP1;P1;durP2;ratioP2;P2;SDS_P1;SDS_P2;PMS_P1;PMS_P2;Temp;Humidity;BMP_temperature;BMP_pressure;BME280_temperature;BME280_humidity;BME280_pressure;Samples;Min_cycle;Max_cycle;Signal;HPM_P1;HPM_P2
2022/04/29 00:01:09;;;;;;;11.68;3.90;;;;;;;10.37;70.74;102923.34;5064230;28;20064;-53
2022/04/29 00:03:37;;;;;;;10.93;3.60;;;;;;;10.29;70.69;102931.75;5076964;28;20544;-52
2022/04/29 00:06:05;;;;;;;11.13;3.67;;;;;;;10.22;70.79;102923.59;5037486;28;20061;-52
2022/04/29 00:08:32;;;;;;;12.25;3.97;;;;;;;10.34;70.45;102917.47;5037925;28;20041;-54
2022/04/29 00:11:00;;;;;;;11.50;4.00;;;;;;;10.32;70.12;102915.00;5042085;28;20038;-51
2022/04/29 00:13:28;;;;;;;11.55;3.78;;;;;;;10.22;70.57;102909.97;5053887;28;20038;-49
2022/04/29 00:15:56;;;;;;;10.65;3.70;;;;;;;10.05;71.40;102902.44;5046511;28;20044;-54
2022/04/29 00:18:24;;;;;;;9.75;4.20;;;;;;;9.99;71.63;102896.81;5072531;28;20510;-50
2022/04/29 00:20:52;;;;;;;11.88;4.30;;;;;;;10.10;71.25;102900.78;5056338;28;20423;-51
2022/04/29 00:23:19;;;;;;;14.75;4.05;;;;;;;10.14;70.98;102899.28;5037885;28;20044;-50
2022/04/29 00:25:48;;;;;;;11.23;3.97;;;;;;;9.97;71.31;102890.72;5034833;28;20041;-49
2022/04/29 00:28:15;;;;;;;11.45;3.70;;;;;;;9.94;71.81;102891.16;5056085;28;20404;-49
2022/04/29 00:30:43;;;;;;;10.80;4.05;;;;;;;10.01;71.63;102891.16;5038280;28;20037;-50
2022/04/29 00:33:11;;;;;;;10.68;3.58;;;;;;;9.98;71.39;102886.13;5051091;28;20076;-51
2022/04/29 00:35:39;;;;;;;12.75;3.75;;;;;;;10.00;71.36;102894.91;5055266;28;20052;-54
2022/04/29 00:38:06;;;;;;;10.93;4.00;;;;;;;9.92;71.40;102893.25;5039139;28;21727;-53
2022/04/29 00:40:34;;;;;;;11.40;3.70;;;;;;;9.77;72.06;102898.94;5070308;28;20049;-49
2022/04/29 00:43:02;;;;;;;12.27;4.22;;;;;;;9.73;72.23;102897.69;5075191;28;20086;-49
2022/04/29 00:45:29;;;;;;;11.30;4.00;;;;;;;9.66;72.54;102896.84;5035901;28;20059;-50
2022/04/29 00:47:57;;;;;;;10.43;3.67;;;;;;;9.70;72.32;102894.56;5037895;28;20052;-50
2022/04/29 00:50:27;;;;;;;13.02;4.13;;;;;;;9.79;71.98;102888.69;5057824;28;20052;-52
2022/04/29 00:52:57;;;;;;;9.63;3.92;;;;;;;9.73;72.03;102878.63;5037107;28;20124;-48
2022/04/29 00:55:24;;;;;;;9.10;3.30;;;;;;;9.69;71.91;102881.97;5057576;28;20127;-49
2022/04/29 00:58:13;;;;;;;10.73;3.95;;;;;;;9.73;72.02;102881.34;5075198;28;20052;-51
2022/04/29 01:00:41;;;;;;;11.73;3.88;;;;;;;9.74;71.57;102880.31;5038720;28;20086;-53
2022/04/29 01:03:18;;;;;;;12.75;3.75;;;;;;;9.65;71.88;102870.69;5066771;28;20048;-50
2022/04/29 01:05:49;;;;;;;16.55;3.92;;;;;;;9.58;72.55;102872.59;5038836;28;20072;-49
2022/04/29 01:08:17;;;;;;;10.02;3.78;;;;;;;9.59;72.30;102877.81;5037031;28;20037;-48
2022/04/29 01:10:46;;;;;;;13.05;4.32;;;;;;;9.68;72.18;102872.16;5018203;28;20053;-50
2022/04/29 01:13:15;;;;;;;9.80;4.22;;;;;;;9.65;72.04;102876.13;5006367;28;20116;-52
2022/04/29 01:15:46;;;;;;;11.88;4.13;;;;;;;9.65;72.00;102872.59;5002174;28;20121;-49
2022/04/29 01:18:16;;;;;;;11.90;3.78;;;;;;;9.61;71.68;102880.31;5034928;28;20049;-49
2022/04/29 01:20:44;;;;;;;12.48;4.68;;;;;;;9.42;72.70;102875.72;5027418;28;20604;-49
2022/04/29 01:23:13;;;;;;;11.88;3.88;;;;;;;9.32;72.78;102871.53;5032409;28;20045;-53
2022/04/29 01:25:41;;;;;;;11.77;3.90;;;;;;;9.15;73.63;102865.69;5017670;28;20042;-49
2022/04/29 01:28:10;;;;;;;10.15;3.58;;;;;;;9.27;73.49;102874.06;5015838;28;20048;-50
2022/04/29 01:30:41;;;;;;;12.07;4.25;;;;;;;9.25;73.91;102859.81;5053365;28;20482;-49
2022/04/29 01:33:10;;;;;;;9.07;3.42;;;;;;;9.32;73.63;102860.66;5026106;28;20042;-48
2022/04/29 01:35:37;;;;;;;9.25;3.88;;;;;;;9.36;73.04;102861.94;5054012;28;20065;-49
2022/04/29 01:38:05;;;;;;;8.85;3.15;;;;;;;9.35;73.28;102854.78;5036575;28;20514;-52
2022/04/29 01:40:32;;;;;;;10.90;4.05;;;;;;;9.36;72.90;102850.22;5039508;28;20037;-51
2022/04/29 01:43:06;;;;;;;12.82;4.63;;;;;;;9.26;72.94;102842.47;5037771;28;20116;-54
2022/04/29 01:45:34;;;;;;;12.75;3.83;;;;;;;9.09;73.86;102843.91;5030728;28;20389;-56
2022/04/29 01:48:25;;;;;;;9.25;3.75;;;;;;;9.05;74.53;102842.66;5026878;28;20107;-54
2022/04/29 01:51:15;;;;;;;13.23;4.63;;;;;;;9.05;74.13;102838.06;5054562;28;20087;-54
2022/04/29 01:53:44;;;;;;;10.82;4.10;;;;;;;9.07;74.15;102835.16;5035025;28;20045;-53
2022/04/29 01:56:11;;;;;;;12.30;3.78;;;;;;;9.13;74.19;102840.56;5037156;28;20037;-56
2022/04/29 01:58:39;;;;;;;13.85;4.35;;;;;;;9.18;73.73;102838.06;5036849;28;20041;-55
2022/04/29 02:01:09;;;;;;;9.52;4.10;;;;;;;9.27;73.59;102838.69;5053726;28;20057;-53
2022/04/29 02:03:37;;;;;;;11.55;4.00;;;;;;;9.23;73.76;102833.88;5020489;28;20037;-55
2022/04/29 02:06:05;;;;;;;10.15;4.03;;;;;;;9.11;74.20;102825.50;5022705;28;20066;-51
2022/04/29 02:08:33;;;;;;;11.65;3.85;;;;;;;8.92;74.46;102833.47;5012793;28;20045;-51
2022/04/29 02:11:01;;;;;;;11.65;4.25;;;;;;;8.80;75.66;102824.22;5050918;28;20377;-53
2022/04/29 02:13:31;;;;;;;13.18;4.20;;;;;;;8.79;75.68;102844.31;5032860;28;20030;-52
2022/04/29 02:16:16;;;;;;;;;;;;;;;8.73;75.98;102840.53;5024087;28;20029;-52
2022/04/29 02:18:44;;;;;;;10.90;4.43;;;;;;;8.67;76.32;102849.50;5032437;28;19947;-54
2022/04/29 02:21:11;;;;;;;15.27;4.22;;;;;;;8.68;76.56;102842.19;5044803;28;20045;-55
2022/04/29 02:23:39;;;;;;;14.20;3.97;;;;;;;8.66;76.39;102844.25;5028253;28;20034;-52
2022/04/29 02:26:07;;;;;;;10.45;4.30;;;;;;;8.77;76.29;102840.13;5017792;28;20557;-54
2022/04/29 02:28:35;;;;;;;16.50;5.60;;;;;;;8.85;75.45;102826.31;5023466;28;20050;-55
2022/04/29 02:31:03;;;;;;;9.88;4.38;;;;;;;8.89;76.11;102825.69;5035318;28;20040;-55
2022/04/29 02:33:32;;;;;;;12.23;4.78;;;;;;;9.03;75.27;102831.16;5024842;28;20034;-54
2022/04/29 02:36:01;;;;;;;14.27;4.43;;;;;;;9.06;74.99;102833.47;5032242;28;20045;-55
2022/04/29 02:38:29;;;;;;;11.95;4.65;;;;;;;8.87;75.58;102835.94;5013813;28;20053;-56
2022/04/29 02:40:57;;;;;;;11.63;4.53;;;;;;;8.74;75.88;102835.94;5034133;28;20382;-52
2022/04/29 02:43:25;;;;;;;15.88;4.90;;;;;;;8.70;76.45;102830.06;5032226;28;20064;-54
2022/04/29 02:45:53;;;;;;;10.70;4.30;;;;;;;8.79;75.94;102829.88;5032191;28;20053;-55
2022/04/29 02:48:20;;;;;;;13.57;4.05;;;;;;;8.75;75.99;102826.72;5031491;28;20050;-56
2022/04/29 02:50:48;;;;;;;12.88;4.60;;;;;;;8.62;76.57;102826.72;5033163;28;20435;-54
2022/04/29 02:53:16;;;;;;;11.43;4.70;;;;;;;8.66;76.15;102825.22;5032182;28;20041;-56
2022/04/29 02:55:44;;;;;;;14.40;4.55;;;;;;;8.54;77.01;102822.31;5032040;28;20038;-55
2022/04/29 02:58:33;;;;;;;12.00;4.40;;;;;;;8.55;76.50;102823.13;5022217;28;20463;-54
2022/04/29 03:01:01;;;;;;;11.90;4.95;;;;;;;8.57;76.69;102826.50;5033908;28;20045;-57
2022/04/29 03:03:30;;;;;;;13.02;4.95;;;;;;;8.59;77.03;102821.69;5033247;28;20041;-52
2022/04/29 03:05:58;;;;;;;14.10;4.95;;;;;;;8.46;77.40;102822.47;5040502;28;20058;-56
2022/04/29 03:08:27;;;;;;;10.38;4.45;;;;;;;8.32;77.98;102813.41;5038929;28;20398;-54
2022/04/29 03:10:55;;;;;;;10.52;4.70;;;;;;;8.33;78.14;102823.25;5032926;28;20136;-53
2022/04/29 03:13:23;;;;;;;12.75;4.72;;;;;;;8.33;78.13;102820.53;5033081;28;20033;-53
2022/04/29 03:15:55;;;;;;;11.00;4.88;;;;;;;8.51;77.42;102819.97;5035151;28;20049;-54
2022/04/29 03:18:24;;;;;;;9.35;4.30;;;;;;;8.51;76.82;102818.13;5047635;28;20087;-54
2022/04/29 03:20:56;;;;;;;13.20;4.93;;;;;;;8.41;77.57;102814.94;5023346;28;20489;-54
2022/04/29 03:23:25;;;;;;;9.80;3.90;;;;;;;8.29;78.74;102811.09;4996233;28;20124;-54
2022/04/29 03:25:55;;;;;;;9.70;4.65;;;;;;;8.28;78.81;102813.00;5012064;28;20042;-50
2022/04/29 03:28:24;;;;;;;15.50;5.65;;;;;;;8.32;78.24;102810.69;5041266;28;20049;-54
2022/04/29 03:30:52;;;;;;;9.82;4.97;;;;;;;8.36;77.61;102801.09;5022791;28;20415;-53
2022/04/29 03:33:24;;;;;;;10.27;4.47;;;;;;;8.33;78.03;102787.94;5031655;28;20046;-51
2022/04/29 03:35:53;;;;;;;10.88;4.97;;;;;;;8.37;78.34;102789.22;5017622;28;20611;-52
2022/04/29 03:38:30;;;;;;;11.98;4.50;;;;;;;8.30;78.71;102796.50;5051303;28;20041;-51
2022/04/29 03:40:58;;;;;;;13.20;5.13;;;;;;;8.41;78.35;102787.78;5035397;28;20045;-53
2022/04/29 03:43:29;;;;;;;11.65;5.25;;;;;;;8.39;78.33;102784.38;5031322;28;20393;-51
2022/04/29 03:45:57;;;;;;;12.15;4.97;;;;;;;8.27;78.18;102786.91;5032092;28;20492;-53
2022/04/29 03:51:40;;;;;;;9.75;4.28;;;;;;;8.35;77.95;102793.19;5019904;28;20034;-53
2022/04/29 03:54:08;;;;;;;12.38;5.45;;;;;;;8.38;77.83;102806.34;5015554;28;20049;-51
2022/04/29 03:56:41;;;;;;;15.30;5.78;;;;;;;8.29;78.45;102805.69;5038991;28;20033;-52
2022/04/29 03:59:09;;;;;;;12.38;5.53;;;;;;;8.23;78.44;102812.78;5049991;28;20090;-51
2022/04/29 04:01:38;;;;;;;11.32;5.53;;;;;;;8.27;78.32;102807.75;5046693;28;20037;-54
2022/04/29 04:04:07;;;;;;;14.38;5.13;;;;;;;8.31;78.18;102792.72;5035449;28;20048;-53
2022/04/29 04:06:50;;;;;;;12.95;6.10;;;;;;;8.36;78.20;102794.84;5019219;28;20111;-51
2022/04/29 04:09:39;;;;;;;10.90;5.45;;;;;;;8.41;77.81;102803.25;5016925;28;20041;-54
2022/04/29 04:12:08;;;;;;;12.45;5.72;;;;;;;8.23;78.39;102801.06;5018053;28;20045;-55
2022/04/29 04:15:07;;;;;;;15.85;5.80;;;;;;;8.22;78.00;102799.38;4982039;28;20418;-54
2022/04/29 04:17:42;;;;;;;14.40;5.80;;;;;;;8.26;78.69;102797.94;5004048;28;20468;-55
2022/04/29 04:20:12;;;;;;;13.48;6.00;;;;;;;8.23;78.19;102798.38;5015729;28;20061;-51
2022/04/29 04:23:02;;;;;;;12.90;5.55;;;;;;;8.11;78.95;102793.50;5028142;28;20042;-52
2022/04/29 04:25:30;;;;;;;12.98;6.10;;;;;;;8.13;78.78;102796.03;5018293;28;20461;-51
2022/04/29 04:27:59;;;;;;;14.55;6.28;;;;;;;8.16;79.18;102790.19;5011324;28;20516;-52
2022/04/29 04:30:41;;;;;;;14.52;6.00;;;;;;;8.11;79.21;102790.78;5024094;28;20499;-51
2022/04/29 04:33:09;;;;;;;12.43;5.60;;;;;;;8.03;79.59;102790.13;5037562;28;20211;-53
2022/04/29 04:35:37;;;;;;;11.70;6.38;;;;;;;8.08;79.69;102796.63;5027033;28;20044;-54
2022/04/29 04:38:05;;;;;;;13.45;6.30;;;;;;;8.19;78.81;102791.66;5020976;28;20551;-52
2022/04/29 04:40:45;;;;;;;18.55;6.45;;;;;;;8.19;78.74;102794.38;5014597;28;20073;-54
2022/04/29 04:43:18;;;;;;;12.75;5.97;;;;;;;8.22;78.53;102793.97;5011810;28;20088;-55
2022/04/29 04:45:47;;;;;;;12.38;5.15;;;;;;;8.28;78.80;102783.13;5025388;28;20064;-51
2022/04/29 04:48:39;;;;;;;14.77;6.65;;;;;;;8.28;77.67;102787.72;5038302;28;20381;-53
2022/04/29 04:51:27;;;;;;;14.43;6.90;;;;;;;8.13;78.36;102795.16;5034590;28;20168;-52
2022/04/29 04:54:00;;;;;;;14.82;6.40;;;;;;;8.16;79.16;102801.03;5017437;28;20037;-50
2022/04/29 04:56:29;;;;;;;15.15;6.47;;;;;;;8.23;78.59;102795.66;5015589;28;20496;-50
2022/04/29 04:58:58;;;;;;;14.55;6.28;;;;;;;8.25;78.79;102798.97;5008995;28;20085;-50
2022/04/29 05:01:26;;;;;;;16.15;6.72;;;;;;;8.17;78.11;102786.41;5026842;28;20107;-50
2022/04/29 05:04:17;;;;;;;19.13;7.13;;;;;;;8.14;79.12;102789.53;4996410;28;20080;-53
2022/04/29 05:07:17;;;;;;;15.30;7.47;;;;;;;8.15;79.24;102790.38;5060371;28;20124;-54
2022/04/29 05:09:44;;;;;;;14.25;7.38;;;;;;;8.08;79.32;102793.91;5047701;28;20037;-53
2022/04/29 05:12:14;;;;;;;15.60;7.20;;;;;;;8.05;79.68;102790.75;5046222;28;20033;-56
2022/04/29 05:15:02;;;;;;;15.65;6.95;;;;;;;8.00;80.52;102791.38;5044586;28;20045;-53
2022/04/29 05:17:30;;;;;;;15.77;6.90;;;;;;;8.09;79.59;102787.44;5023449;28;20435;-53
2022/04/29 05:20:16;;;;;;;;;;;;;;;8.00;80.06;102796.78;5054938;28;20037;-48
2022/04/29 05:22:47;;;;;;;15.77;7.25;;;;;;;7.98;79.92;102792.59;5036907;28;20272;-52
2022/04/29 05:25:15;;;;;;;16.30;7.05;;;;;;;8.01;79.92;102798.47;5048730;28;20064;-53
2022/04/29 05:27:58;;;;;;;16.10;7.30;;;;;;;8.01;79.92;102798.47;5055812;28;20036;-55
2022/04/29 05:31:02;;;;;;;16.80;7.15;;;;;;;7.91;80.78;102800.72;4953256;28;20046;-51
2022/04/29 05:33:48;;;;;;;18.35;7.57;;;;;;;7.93;81.20;102805.94;5035785;28;20453;-53
2022/04/29 05:36:35;;;;;;;14.00;7.30;;;;;;;8.02;80.96;102794.72;5043218;28;20033;-55
2022/04/29 05:42:19;;;;;;;15.60;6.43;;;;;;;8.05;80.03;102794.31;5055291;28;20037;-57
2022/04/29 05:44:47;;;;;;;14.07;7.30;;;;;;;8.03;80.05;102801.84;5037239;28;20057;-59
2022/04/29 05:47:17;;;;;;;15.30;7.20;;;;;;;7.95;81.37;102793.03;5042393;28;20047;-56
2022/04/29 05:49:48;;;;;;;23.23;7.72;;;;;;;8.00;80.61;102799.50;5026935;28;20543;-52
2022/04/29 05:52:16;;;;;;;18.65;7.47;;;;;;;8.02;80.51;102800.16;5040768;28;20135;-52
2022/04/29 05:54:46;;;;;;;19.73;7.68;;;;;;;8.02;80.99;102800.16;5041195;28;20044;-50
2022/04/29 05:57:20;;;;;;;18.33;7.45;;;;;;;7.83;82.06;102798.19;4333869;28;10000667;-55
2022/04/29 05:59:50;;;;;;;20.02;8.07;;;;;;;7.83;82.11;102803.59;5068892;28;20153;-54
2022/04/29 06:02:29;;;;;;;16.23;6.85;;;;;;;7.91;82.27;102803.44;5052425;28;20040;-51
2022/04/29 06:05:08;;;;;;;14.95;7.80;;;;;;;8.07;81.09;102794.94;5035439;28;20125;-53
2022/04/29 06:07:37;;;;;;;14.82;6.75;;;;;;;8.22;80.80;102793.97;5028187;28;20056;-53
2022/04/29 06:10:05;;;;;;;17.10;7.55;;;;;;;8.18;80.84;102803.53;5029862;28;20064;-52
2022/04/29 06:12:43;;;;;;;15.23;7.20;;;;;;;8.22;80.80;102802.09;5014123;28;20049;-51
2022/04/29 06:15:21;;;;;;;18.75;7.60;;;;;;;8.15;80.44;102806.66;5011710;28;20069;-51
2022/04/29 06:17:54;;;;;;;16.02;7.50;;;;;;;8.04;81.17;102808.94;5042386;28;20495;-53
2022/04/29 06:20:45;;;;;;;14.90;7.22;;;;;;;8.00;81.43;102821.22;5050204;28;20066;-54
2022/04/29 06:23:26;;;;;;;15.48;8.15;;;;;;;8.06;81.78;102815.00;5051919;28;20123;-53
2022/04/29 06:25:56;;;;;;;15.43;7.35;;;;;;;8.08;82.10;102821.06;5070124;28;20051;-53
2022/04/29 06:28:27;;;;;;;13.88;7.72;;;;;;;8.06;81.82;102823.16;5050081;28;20082;-52
2022/04/29 06:30:55;;;;;;;18.58;7.80;;;;;;;8.05;81.69;102821.44;5039514;28;20064;-53
2022/04/29 06:33:32;;;;;;;14.95;7.13;;;;;;;8.16;82.00;102819.22;5029680;28;20042;-52
2022/04/29 06:36:01;;;;;;;15.02;7.60;;;;;;;8.23;81.88;102828.22;5027739;28;20110;-54
2022/04/29 06:38:31;;;;;;;14.60;7.45;;;;;;;8.31;81.19;102830.75;5045159;28;20036;-50
2022/04/29 06:41:17;;;;;;;13.82;6.85;;;;;;;8.33;80.59;102829.50;5062006;28;20046;-54
2022/04/29 06:43:58;;;;;;;13.68;7.18;;;;;;;8.22;81.15;102831.97;5034419;28;20045;-54
2022/04/29 06:46:46;;;;;;;12.75;6.65;;;;;;;8.14;81.27;102835.72;5034016;28;20049;-54
2022/04/29 06:49:32;;;;;;;;;;;;;;;8.25;81.43;102831.56;5049622;28;20065;-53
2022/04/29 06:52:18;;;;;;;15.50;7.03;;;;;;;8.33;81.79;102831.41;5042296;28;19925;-54
2022/04/29 06:54:56;;;;;;;18.40;7.40;;;;;;;8.36;81.37;102832.88;5015015;28;20665;-54
2022/04/29 06:57:26;;;;;;;16.40;6.82;;;;;;;8.29;81.03;102833.66;5017751;28;20148;-56
2022/04/29 06:59:54;;;;;;;15.82;7.88;;;;;;;8.35;81.80;102826.59;5022333;28;20096;-55
2022/04/29 07:02:21;;;;;;;16.13;8.48;;;;;;;8.33;81.83;102836.84;5045796;28;20041;-50
2022/04/29 07:04:49;;;;;;;16.83;8.63;;;;;;;8.33;81.69;102839.53;5001775;28;20048;-50
2022/04/29 07:07:17;;;;;;;16.55;9.05;;;;;;;8.38;82.27;102834.34;5021741;28;20092;-51
2022/04/29 07:09:50;;;;;;;19.50;9.75;;;;;;;8.45;81.34;102831.69;5032663;28;20045;-54
2022/04/29 07:12:51;;;;;;;18.38;9.68;;;;;;;8.45;81.36;102837.13;5036913;28;20056;-53
2022/04/29 07:15:21;;;;;;;20.23;8.00;;;;;;;8.48;81.14;102842.97;5035004;28;20064;-53
2022/04/29 07:17:49;;;;;;;17.45;8.80;;;;;;;8.46;81.72;102850.47;5029658;28;20040;-52
2022/04/29 07:20:18;;;;;;;19.67;8.88;;;;;;;8.49;80.81;102852.81;5054831;28;20044;-50
2022/04/29 07:22:46;;;;;;;13.68;7.90;;;;;;;8.58;80.58;102841.75;5054782;28;20044;-51
2022/04/29 07:25:14;;;;;;;19.55;8.13;;;;;;;8.64;80.66;102840.94;5056895;28;20040;-51
2022/04/29 07:27:43;;;;;;;18.67;7.50;;;;;;;8.65;80.09;102842.59;5051793;28;20440;-49
2022/04/29 07:30:11;;;;;;;21.38;9.18;;;;;;;8.66;80.80;102839.69;5038446;28;20407;-51
2022/04/29 07:32:44;;;;;;;18.10;8.15;;;;;;;8.71;80.42;102847.22;5023338;28;20384;-52
2022/04/29 07:44:12;;;;;;;19.52;8.40;;;;;;;8.96;80.05;102833.88;5058915;28;20041;-51
2022/04/29 07:46:43;;;;;;;15.90;8.48;;;;;;;8.98;80.00;102841.81;5042047;28;20041;-52
2022/04/29 07:49:26;;;;;;;19.58;8.35;;;;;;;8.99;79.28;102838.06;5036617;28;20037;-50
2022/04/29 07:51:54;;;;;;;19.08;8.35;;;;;;;9.05;79.43;102839.94;5018511;28;20504;-49
2022/04/29 07:54:23;;;;;;;18.90;8.77;;;;;;;9.06;79.96;102836.19;5018553;28;20053;-51
2022/04/29 07:56:53;;;;;;;17.85;8.48;;;;;;;9.06;78.96;102834.28;5026159;28;20124;-50
2022/04/29 07:59:21;;;;;;;23.50;9.18;;;;;;;9.13;78.63;102832.41;5038511;28;20038;-50
2022/04/29 08:01:56;;;;;;;22.05;8.60;;;;;;;9.16;78.79;102831.16;5037866;28;20041;-55
2022/04/29 08:04:24;;;;;;;20.42;8.98;;;;;;;9.20;78.88;102829.69;5038471;28;20120;-53
2022/04/29 08:06:52;;;;;;;15.18;8.52;;;;;;;9.25;78.61;102821.75;5058954;28;20076;-53
2022/04/29 08:09:35;;;;;;;20.60;9.43;;;;;;;9.29;78.43;102827.63;5038073;28;20052;-50
2022/04/29 08:12:10;;;;;;;23.73;9.50;;;;;;;9.29;78.23;102823.00;5038446;28;20041;-53
2022/04/29 08:14:37;;;;;;;19.45;9.40;;;;;;;9.36;78.51;102823.84;5056635;28;20411;-55
2022/04/29 08:17:43;;;;;;;19.90;8.50;;;;;;;9.44;78.01;102827.38;5045208;28;20086;-56
2022/04/29 08:20:12;;;;;;;20.20;10.00;;;;;;;9.50;78.86;102840.13;5059664;28;20083;-56
2022/04/29 08:22:42;;;;;;;18.80;9.15;;;;;;;9.57;78.79;102832.78;5059235;28;20041;-54
2022/04/29 08:25:11;;;;;;;19.35;9.15;;;;;;;9.58;77.63;102838.03;5058452;28;20063;-53
2022/04/29 08:27:40;;;;;;;20.00;8.43;;;;;;;9.58;77.24;102845.38;5066955;28;20068;-54
2022/04/29 08:30:08;;;;;;;20.52;8.85;;;;;;;9.60;77.20;102848.72;5057810;28;20068;-56
2022/04/29 08:32:41;;;;;;;23.98;8.90;;;;;;;9.61;77.53;102844.94;5058710;28;20057;-52
2022/04/29 08:35:17;;;;;;;17.15;9.13;;;;;;;9.65;77.88;102843.47;5042723;28;20106;-55
2022/04/29 08:37:45;;;;;;;18.08;9.18;;;;;;;9.72;78.05;102840.75;5047036;28;20499;-52
2022/04/29 08:40:14;;;;;;;16.98;8.10;;;;;;;9.75;77.71;102843.88;5038210;28;20041;-54
2022/04/29 08:42:42;;;;;;;20.10;8.15;;;;;;;9.79;77.28;102845.13;5055492;28;20048;-52
2022/04/29 08:45:13;;;;;;;21.90;8.48;;;;;;;9.81;77.59;102847.63;5037409;28;20178;-52
2022/04/29 08:48:02;;;;;;;15.77;7.97;;;;;;;9.84;77.44;102840.91;5021596;28;20049;-53
2022/04/29 08:50:36;;;;;;;19.48;8.88;;;;;;;9.89;78.16;102854.75;5014562;28;20086;-53
2022/04/29 08:53:04;;;;;;;25.02;9.68;;;;;;;9.88;77.69;102853.06;5031055;28;20045;-56
2022/04/29 08:58:37;;;;;;;18.73;8.02;;;;;;;9.86;77.69;102846.97;5067747;28;20439;-55
2022/04/29 09:01:08;;;;;;;16.65;9.10;;;;;;;9.82;77.81;102854.75;5074720;28;20075;-55
2022/04/29 09:03:37;;;;;;;19.90;8.75;;;;;;;9.82;77.42;102855.59;5074747;28;20127;-53
2022/04/29 09:06:06;;;;;;;19.10;8.63;;;;;;;9.87;77.94;102854.13;5074614;28;20396;-52
2022/04/29 09:08:45;;;;;;;18.90;9.25;;;;;;;9.85;77.81;102853.50;5073159;28;20056;-53
2022/04/29 09:11:21;;;;;;;19.88;9.18;;;;;;;9.88;77.83;102847.59;5074861;28;20041;-52
2022/04/29 09:13:49;;;;;;;20.48;8.90;;;;;;;9.92;77.87;102843.41;5056875;28;20119;-54
2022/04/29 09:16:19;;;;;;;22.30;9.68;;;;;;;9.96;77.98;102844.66;5054944;28;20041;-49
2022/04/29 09:18:55;;;;;;;16.58;8.45;;;;;;;10.01;78.06;102840.25;5036878;28;20072;-50
2022/04/29 09:21:26;;;;;;;19.70;8.23;;;;;;;10.07;77.29;102848.59;5054786;28;20088;-55
2022/04/29 09:23:59;;;;;;;20.67;8.25;;;;;;;10.03;76.77;102840.03;5036851;28;20037;-55
2022/04/29 09:26:29;;;;;;;21.90;9.43;;;;;;;10.08;77.42;102842.94;5037036;28;20503;-54
2022/04/29 09:29:14;;;;;;;23.03;8.90;;;;;;;10.12;77.44;102841.44;5041701;28;20399;-54
2022/04/29 09:31:54;;;;;;;22.15;9.02;;;;;;;10.14;76.87;102828.44;5036334;28;20280;-53
2022/04/29 09:34:58;;;;;;;23.67;9.88;;;;;;;10.17;77.75;102830.78;5054188;28;20380;-53
2022/04/29 09:37:27;;;;;;;18.98;8.93;;;;;;;10.20;77.52;102833.06;5050447;28;20044;-52
2022/04/29 09:40:04;;;;;;;26.45;9.52;;;;;;;10.23;77.97;102824.44;5041230;28;20123;-50
2022/04/29 09:42:40;;;;;;;17.85;9.35;;;;;;;10.27;77.64;102824.00;5056855;28;20048;-51
2022/04/29 09:45:17;;;;;;;20.70;9.43;;;;;;;10.33;77.36;102825.91;5040442;28;20551;-52
2022/04/29 09:47:45;;;;;;;18.40;8.95;;;;;;;10.39;77.29;102825.88;5071886;28;20045;-54
2022/04/29 09:50:13;;;;;;;17.17;8.48;;;;;;;10.41;76.29;102837.41;5056018;28;20045;-53
2022/04/29 09:52:43;;;;;;;20.05;8.77;;;;;;;10.41;76.00;102839.25;5073887;28;20044;-52
2022/04/29 09:55:15;;;;;;;20.20;8.52;;;;;;;10.42;75.63;102833.59;5074088;28;20059;-51
2022/04/29 09:57:58;;;;;;;19.08;8.52;;;;;;;10.48;75.80;102837.34;5054629;28;20090;-52
2022/04/29 10:00:26;;;;;;;15.15;8.75;;;;;;;10.49;75.46;102833.59;5073602;28;20131;-54
2022/04/29 10:02:55;;;;;;;19.08;8.45;;;;;;;10.47;75.59;102838.41;5073951;28;20056;-55
2022/04/29 10:05:26;;;;;;;20.10;8.70;;;;;;;10.49;76.36;102839.03;5055865;28;20498;-52
2022/04/29 10:08:00;;;;;;;21.40;8.05;;;;;;;10.56;76.34;102845.28;5038608;28;20043;-51
2022/04/29 10:10:30;;;;;;;18.50;8.38;;;;;;;10.59;75.62;102842.13;5039407;28;20487;-51
2022/04/29 10:13:00;;;;;;;21.25;9.20;;;;;;;10.59;76.14;102839.38;5036179;28;20041;-53
2022/04/29 10:15:53;;;;;;;20.05;7.68;;;;;;;10.60;76.61;102834.75;5052536;28;20041;-50
2022/04/29 10:21:52;;;;;;;18.25;8.43;;;;;;;10.68;75.51;102828.22;5061350;28;20051;-53
2022/04/29 10:24:24;;;;;;;15.70;7.57;;;;;;;10.63;75.19;102821.53;5073407;28;20044;-52
2022/04/29 10:26:54;;;;;;;14.32;7.43;;;;;;;10.64;75.30;102823.19;5073276;28;20051;-54
2022/04/29 10:29:22;;;;;;;17.75;8.07;;;;;;;10.65;75.70;102827.63;5049207;28;20049;-55
2022/04/29 10:32:07;;;;;;;19.10;8.45;;;;;;;10.66;74.98;102826.56;5053021;28;20047;-56
2022/04/29 10:34:35;;;;;;;24.30;8.10;;;;;;;10.63;76.16;102827.00;5037894;28;20051;-54
2022/04/29 10:37:11;;;;;;;18.50;8.23;;;;;;;10.69;75.91;102829.91;5037915;28;20048;-55
2022/04/29 10:40:02;;;;;;;19.58;8.43;;;;;;;10.70;75.28;102824.22;5041247;28;20466;-52
2022/04/29 10:42:30;;;;;;;17.73;7.80;;;;;;;10.74;75.72;102822.72;5073225;28;20036;-55
2022/04/29 10:45:01;;;;;;;17.92;8.02;;;;;;;10.77;75.61;102819.53;5073308;28;20119;-53
2022/04/29 10:47:41;;;;;;;21.58;8.15;;;;;;;10.81;75.11;102818.06;5056216;28;20064;-55
2022/04/29 10:50:36;;;;;;;20.60;7.50;;;;;;;10.84;73.96;102822.25;5053836;28;20453;-56
2022/04/29 10:53:27;;;;;;;17.42;7.45;;;;;;;10.87;73.76;102821.78;5058571;28;20064;-55
2022/04/29 10:56:26;;;;;;;19.08;7.28;;;;;;;10.87;73.78;102802.69;5041284;28;20098;-55
2022/04/29 10:59:04;;;;;;;16.48;6.45;;;;;;;10.92;73.57;102800.16;5073194;28;20045;-50
2022/04/29 11:01:35;;;;;;;15.27;6.97;;;;;;;10.96;73.05;102793.19;5071410;28;20051;-52
2022/04/29 11:04:08;;;;;;;15.07;7.18;;;;;;;11.01;72.37;102793.34;5073375;28;20135;-55
2022/04/29 11:06:41;;;;;;;18.33;7.82;;;;;;;11.04;70.90;102790.19;5038666;28;20056;-52
2022/04/29 11:09:35;;;;;;;17.60;6.68;;;;;;;11.09;71.38;102801.28;5073049;28;20056;-53
2022/04/29 11:12:03;;;;;;;15.10;6.30;;;;;;;11.14;70.22;102810.69;5071326;28;20064;-54
2022/04/29 11:15:19;;;;;;;14.52;6.60;;;;;;;11.12;69.05;102799.16;5072193;28;20032;-55
2022/04/29 11:18:14;;;;;;;15.07;6.60;;;;;;;11.12;69.61;102797.28;5072875;28;20411;-52
2022/04/29 11:20:43;;;;;;;12.65;5.95;;;;;;;11.16;67.16;102794.91;5056760;28;20051;-53
2022/04/29 11:25:58;;;;;;;18.95;5.88;;;;;;;11.24;65.62;102798.19;5047560;28;20041;-55
2022/04/29 11:28:37;;;;;;;18.95;6.38;;;;;;;11.26;65.57;102795.25;5035059;28;20052;-54
2022/04/29 11:31:35;;;;;;;16.13;6.57;;;;;;;11.24;65.26;102794.66;5035678;28;20076;-49
2022/04/29 11:34:22;;;;;;;11.85;5.82;;;;;;;11.30;64.52;102791.00;5034864;28;20500;-54
2022/04/29 11:36:57;;;;;;;14.35;6.43;;;;;;;11.33;64.74;102789.72;5035066;28;20099;-54
2022/04/29 11:39:24;;;;;;;11.27;5.78;;;;;;;11.35;64.33;102782.97;5035089;28;20037;-55
2022/04/29 11:41:55;;;;;;;16.13;5.47;;;;;;;11.40;63.05;102780.44;5053534;28;20041;-53
2022/04/29 11:44:43;;;;;;;16.40;6.07;;;;;;;11.45;63.14;102782.50;5034596;28;20045;-54
2022/04/29 11:47:11;;;;;;;18.92;6.10;;;;;;;11.50;62.66;102780.75;5052679;28;20492;-54
2022/04/29 11:49:43;;;;;;;13.40;5.55;;;;;;;11.54;62.25;102774.81;5034961;28;20041;-53
2022/04/29 11:52:33;;;;;;;18.48;6.32;;;;;;;11.60;63.41;102780.22;5053653;28;20384;-54
2022/04/29 11:55:23;;;;;;;14.75;6.43;;;;;;;11.62;63.47;102777.28;5034570;28;20055;-53
2022/04/29 11:57:51;;;;;;;16.20;6.22;;;;;;;11.63;63.38;102779.75;5052049;28;20091;-55
2022/04/29 12:00:24;;;;;;;15.93;6.28;;;;;;;11.68;64.44;102781.81;5052740;28;20041;-55
2022/04/29 12:02:56;;;;;;;17.67;6.43;;;;;;;11.68;64.47;102781.81;5054812;28;20458;-56
2022/04/29 12:05:33;;;;;;;15.40;6.00;;;;;;;11.73;64.48;102774.59;5049814;28;20060;-52
2022/04/29 12:08:15;;;;;;;12.70;6.10;;;;;;;11.78;65.20;102771.19;5035201;28;20479;-53
2022/04/29 12:10:52;;;;;;;15.48;6.65;;;;;;;11.81;65.77;102775.34;5035359;28;20487;-55
2022/04/29 12:13:21;;;;;;;21.23;7.50;;;;;;;11.87;66.41;102775.31;5056821;28;20039;-55
2022/04/29 12:15:56;;;;;;;20.50;7.30;;;;;;;11.93;66.26;102779.88;5021954;28;20045;-52
2022/04/29 12:18:44;;;;;;;16.90;6.85;;;;;;;11.98;66.86;102781.06;5055922;28;20045;-52